createdAt,value
2023-05-03T00:01:01.521Z,100186.13
2023-05-03T00:03:28.746Z,100192.94
2023-05-03T00:05:55.932Z,100185.97
2023-05-03T00:08:23.007Z,100193.53
2023-05-03T00:10:50.098Z,100188.28
2023-05-03T00:13:17.079Z,100185.53
2023-05-03T00:15:44.468Z,100182.94
2023-05-03T00:18:11.586Z,100180.47
2023-05-03T00:20:38.694Z,100180.56
2023-05-03T00:23:05.769Z,100185.72
2023-05-03T00:25:32.774Z,100179.84
2023-05-03T00:27:59.709Z,100178.28
2023-05-03T00:30:26.697Z,100176.63
2023-05-03T00:32:53.905Z,100171.56
2023-05-03T00:35:21.368Z,100174.22
2023-05-03T00:37:48.343Z,100169.91
2023-05-03T00:40:18.808Z,100177.69
2023-05-03T00:42:47.442Z,100163.88
2023-05-03T00:45:14.487Z,100163.88
2023-05-03T00:47:41.552Z,100157.81
2023-05-03T00:50:09.977Z,100160.44
2023-05-03T00:52:37.006Z,100154.47
2023-05-03T00:55:04.367Z,100157.88
2023-05-03T00:57:31.553Z,100154.38
2023-05-03T01:00:02.010Z,100154.22
2023-05-03T01:02:34.461Z,100160.88
2023-05-03T01:05:02.666Z,100157.28
2023-05-03T01:07:49.852Z,100162.97
2023-05-03T01:10:55.563Z,100154.25
2023-05-03T01:13:28.570Z,100149.84
2023-05-03T01:16:17.072Z,100142.03
2023-05-03T01:18:44.408Z,100142.91
2023-05-03T01:21:11.920Z,100142.97
2023-05-03T01:23:59.868Z,100141.25
2023-05-03T01:26:27.733Z,100137.00
2023-05-03T01:28:55.314Z,100142.25
2023-05-03T01:31:44.841Z,100133.63
2023-05-03T01:34:17.681Z,100132.72
2023-05-03T01:36:45.019Z,100124.91
2023-05-03T01:39:52.033Z,100133.50
2023-05-03T01:42:19.154Z,100122.97
2023-05-03T01:44:47.444Z,100122.06
2023-05-03T01:47:15.299Z,100122.03
2023-05-03T01:49:42.368Z,100124.63
2023-05-03T01:52:09.364Z,100119.66
2023-05-03T01:54:37.814Z,100127.47
2023-05-03T01:57:05.434Z,100130.06
2023-05-03T01:59:32.457Z,100121.69
2023-05-03T02:01:59.507Z,100128.50
2023-05-03T02:04:26.586Z,100123.53
2023-05-03T02:06:53.750Z,100117.72
2023-05-03T02:09:20.787Z,100121.28
2023-05-03T02:11:47.944Z,100118.81
2023-05-03T02:14:15.022Z,100116.34
2023-05-03T02:16:42.097Z,100113.88
2023-05-03T02:19:09.514Z,100112.31
2023-05-03T02:21:37.201Z,100119.31
2023-05-03T02:24:04.606Z,100116.03
2023-05-03T02:26:31.588Z,100098.19
2023-05-03T02:28:58.660Z,100103.31
2023-05-03T02:31:27.317Z,100096.63
2023-05-03T02:33:56.138Z,100083.94
2023-05-03T02:36:23.681Z,100089.16
2023-05-03T02:38:51.274Z,100090.09
2023-05-03T02:41:18.812Z,100087.66
2023-05-03T02:43:46.539Z,100105.81
2023-05-03T02:46:13.629Z,100102.50
2023-05-03T02:48:40.683Z,100110.31
2023-05-03T02:51:07.799Z,100101.84
2023-05-03T02:53:35.068Z,100101.97
2023-05-03T02:56:03.626Z,100094.28
2023-05-03T02:58:31.206Z,100091.84
2023-05-03T03:00:59.562Z,100090.31
2023-05-03T03:03:29.576Z,100081.16
2023-05-03T03:05:56.676Z,100082.19
2023-05-03T03:08:24.068Z,100084.13
2023-05-03T03:10:51.869Z,100082.66
2023-05-03T03:13:19.052Z,100079.41
2023-05-03T03:15:46.417Z,100071.03
2023-05-03T03:18:13.698Z,100072.91
2023-05-03T03:20:40.854Z,100060.09
2023-05-03T03:23:08.072Z,100055.84
2023-05-03T03:25:35.066Z,100054.16
2023-05-03T03:28:02.217Z,100056.81
2023-05-03T03:30:30.302Z,100063.00
2023-05-03T03:33:06.935Z,100060.69
2023-05-03T03:35:39.837Z,100066.19
2023-05-03T03:38:07.477Z,100063.88
2023-05-03T03:40:38.664Z,100055.53
2023-05-03T03:43:06.160Z,100053.22
2023-05-03T03:45:33.135Z,100057.81
2023-05-03T03:48:00.668Z,100051.09
2023-05-03T03:50:28.209Z,100051.28
2023-05-03T03:52:55.315Z,100047.16
2023-05-03T03:55:23.085Z,100051.66
2023-05-03T03:57:53.284Z,100051.03
2023-05-03T04:00:21.586Z,100048.78
2023-05-03T04:02:56.373Z,100045.50
2023-05-03T04:05:23.943Z,100048.28
2023-05-03T04:07:50.945Z,100042.41
2023-05-03T04:10:19.848Z,100039.13
2023-05-03T04:12:47.037Z,100040.22
2023-05-03T04:15:15.852Z,100037.88
2023-05-03T04:17:45.440Z,100045.81
2023-05-03T04:20:13.822Z,100039.91
2023-05-03T04:22:46.032Z,100037.44
2023-05-03T04:25:17.280Z,100044.44
2023-05-03T04:27:51.655Z,100038.47
2023-05-03T04:30:20.238Z,100044.56
2023-05-03T04:32:54.285Z,100051.47
2023-05-03T04:35:23.422Z,100048.88
2023-05-03T04:37:50.675Z,100040.22
2023-05-03T04:40:21.719Z,100034.09
2023-05-03T04:42:57.949Z,100042.69
2023-05-03T04:45:25.197Z,100039.94
2023-05-03T04:47:52.566Z,100038.13
2023-05-03T04:50:19.759Z,100031.19
2023-05-03T04:52:50.400Z,100034.69
2023-05-03T04:55:18.899Z,100037.25
2023-05-03T04:57:45.985Z,100040.69
2023-05-03T05:00:14.754Z,100032.84
2023-05-03T05:02:46.737Z,100028.63
2023-05-03T05:05:14.882Z,100029.66
2023-05-03T05:07:42.763Z,100040.13
2023-05-03T05:10:12.348Z,100028.91
2023-05-03T05:12:39.398Z,100026.31
2023-05-03T05:15:08.076Z,100027.22
2023-05-03T05:17:35.287Z,100028.97
2023-05-03T05:20:07.251Z,100038.50
2023-05-03T05:22:34.975Z,100032.44
2023-05-03T05:25:02.198Z,100035.91
2023-05-03T05:27:30.958Z,100044.56
2023-05-03T05:29:59.478Z,100043.69
2023-05-03T05:32:27.021Z,100048.88
2023-05-03T05:34:55.571Z,100048.88
2023-05-03T05:37:25.609Z,100048.00
2023-05-03T05:39:53.691Z,100047.13
2023-05-03T05:42:23.340Z,100058.38
2023-05-03T05:44:52.432Z,100062.69
2023-05-03T05:47:21.477Z,100060.06
2023-05-03T05:49:50.967Z,100052.28
2023-05-03T05:52:18.220Z,100061.78
2023-05-03T05:54:45.916Z,100056.59
2023-05-03T05:57:13.649Z,100062.63
2023-05-03T05:59:41.118Z,100050.50
2023-05-03T06:02:11.873Z,100051.38
2023-05-03T06:04:38.975Z,100057.41
2023-05-03T06:07:06.566Z,100066.06
2023-05-03T06:09:33.555Z,100065.19
2023-05-03T06:12:03.523Z,100069.50
2023-05-03T06:14:32.820Z,100074.66
2023-05-03T06:17:00.787Z,100085.03
2023-05-03T06:19:28.112Z,100088.44
2023-05-03T06:21:55.156Z,100094.47
2023-05-03T06:24:22.571Z,100097.09
2023-05-03T06:26:53.427Z,100092.78
2023-05-03T06:29:20.949Z,100098.88
2023-05-03T06:31:48.002Z,100101.50
2023-05-03T06:34:20.173Z,100099.78
2023-05-03T06:36:47.464Z,100101.47
2023-05-03T06:39:14.477Z,100098.03
2023-05-03T06:41:41.381Z,100098.00
2023-05-03T06:44:08.534Z,100093.69
2023-05-03T06:46:35.596Z,100086.81
2023-05-03T06:49:03.795Z,100086.81
2023-05-03T06:51:33.074Z,100073.88
2023-05-03T06:54:02.100Z,100074.75
2023-05-03T06:56:29.132Z,100075.66
2023-05-03T06:58:56.179Z,100057.47
2023-05-03T07:01:23.438Z,100060.09
2023-05-03T07:03:50.427Z,100054.03
2023-05-03T07:06:18.466Z,100069.63
2023-05-03T07:08:45.554Z,100072.22
2023-05-03T07:11:12.655Z,100087.78
2023-05-03T07:13:39.664Z,100093.88
2023-05-03T07:16:07.365Z,100108.56
2023-05-03T07:18:34.504Z,100099.09
2023-05-03T07:21:01.859Z,100099.09
2023-05-03T07:23:28.972Z,100103.41
2023-05-03T07:25:55.982Z,100100.84
2023-05-03T07:28:23.606Z,100108.59
2023-05-03T07:30:51.355Z,100095.56
2023-05-03T07:33:18.546Z,100086.88
2023-05-03T07:35:49.205Z,100084.19
2023-05-03T07:38:16.716Z,100084.97
2023-05-03T07:40:43.659Z,100087.47
2023-05-03T07:43:10.724Z,100096.09
2023-05-03T07:45:38.112Z,100103.84
2023-05-03T07:48:09.479Z,100113.38
2023-05-03T07:50:36.483Z,100114.19
2023-05-03T07:53:03.571Z,100113.31
2023-05-03T07:55:33.131Z,100116.78
2023-05-03T07:58:00.225Z,100114.19
2023-05-03T08:00:27.714Z,100103.75
2023-05-03T08:02:54.952Z,100114.16
2023-05-03T08:05:22.755Z,100112.44
2023-05-03T08:07:50.596Z,100109.75
2023-05-03T08:10:18.015Z,100113.19
2023-05-03T08:12:47.181Z,100121.81
2023-05-03T08:15:14.159Z,100123.53
2023-05-03T08:17:42.729Z,100125.25
2023-05-03T08:20:10.764Z,100125.22
2023-05-03T08:22:38.763Z,100125.16
2023-05-03T08:25:06.311Z,100131.19
2023-05-03T08:27:33.872Z,100136.31
2023-05-03T08:30:01.841Z,100133.66
2023-05-03T08:32:32.836Z,100139.72
2023-05-03T08:34:59.954Z,100140.63
2023-05-03T08:37:27.000Z,100132.84
2023-05-03T08:39:54.152Z,100122.41
2023-05-03T08:42:21.754Z,100141.53
2023-05-03T08:44:49.947Z,100138.03
2023-05-03T08:47:17.487Z,100115.47
2023-05-03T08:49:44.713Z,100112.88
2023-05-03T08:52:12.214Z,100129.38
2023-05-03T08:54:39.305Z,100145.06
2023-05-03T08:57:18.645Z,100138.19
2023-05-03T08:59:54.332Z,100152.13
2023-05-03T09:02:21.661Z,100155.63
2023-05-03T09:04:48.718Z,100169.59
2023-05-03T09:07:20.080Z,100180.97
2023-05-03T09:09:47.529Z,100172.34
2023-05-03T09:12:34.342Z,100148.94
2023-05-03T09:15:01.368Z,100153.28
2023-05-03T09:17:31.618Z,100154.16
2023-05-03T09:19:59.114Z,100151.53
2023-05-03T09:22:32.506Z,100139.41
2023-05-03T09:25:00.352Z,100141.13
2023-05-03T09:27:27.564Z,100133.31
2023-05-03T09:29:54.677Z,100137.69
2023-05-03T09:32:23.037Z,100142.03
2023-05-03T09:34:50.149Z,100152.47
2023-05-03T09:37:17.481Z,100154.25
2023-05-03T09:39:46.009Z,100148.16
2023-05-03T09:42:18.091Z,100155.97
2023-05-03T09:44:49.228Z,100157.72
2023-05-03T09:47:16.597Z,100161.25
2023-05-03T09:49:43.656Z,100157.78
2023-05-03T09:52:11.205Z,100168.16
2023-05-03T09:54:38.415Z,100169.06
2023-05-03T09:57:06.723Z,100185.56
2023-05-03T09:59:34.784Z,100178.63
2023-05-03T10:02:03.759Z,100181.22
2023-05-03T10:04:38.965Z,100182.09
2023-05-03T10:07:08.651Z,100186.38
2023-05-03T10:09:44.734Z,100191.59
2023-05-03T10:12:13.137Z,100188.16
2023-05-03T10:14:41.966Z,100195.97
2023-05-03T10:17:14.409Z,100198.56
2023-05-03T10:20:01.255Z,100203.78
2023-05-03T10:22:28.312Z,100208.09
2023-05-03T10:25:01.740Z,100210.69
2023-05-03T10:27:45.240Z,100205.50
2023-05-03T10:30:31.328Z,100208.13
2023-05-03T10:33:19.021Z,100207.25
2023-05-03T10:35:52.572Z,100208.09
2023-05-03T10:38:24.266Z,100217.63
2023-05-03T10:40:51.957Z,100206.34
2023-05-03T10:43:31.192Z,100204.56
2023-05-03T10:46:06.686Z,100215.00
2023-05-03T10:48:34.196Z,100212.41
2023-05-03T10:51:30.647Z,100213.25
2023-05-03T10:53:57.834Z,100201.06
2023-05-03T10:56:24.935Z,100211.47
2023-05-03T10:58:56.103Z,100207.97
2023-05-03T11:01:24.450Z,100205.34
2023-05-03T11:04:06.671Z,100197.53
2023-05-03T11:06:38.102Z,100199.28
2023-05-03T11:09:07.046Z,100194.06
2023-05-03T11:11:39.423Z,100199.25
2023-05-03T11:14:08.561Z,100210.53
2023-05-03T11:16:36.748Z,100205.34
2023-05-03T11:19:04.023Z,100208.00
2023-05-03T11:21:31.536Z,100214.94
2023-05-03T11:23:59.236Z,100215.84
2023-05-03T11:26:26.665Z,100205.41
2023-05-03T11:28:54.114Z,100203.69
2023-05-03T11:31:21.398Z,100195.88
2023-05-03T11:33:49.338Z,100208.84
2023-05-03T11:36:16.613Z,100218.38
2023-05-03T11:38:43.712Z,100222.69
2023-05-03T11:41:15.051Z,100214.03
2023-05-03T11:43:52.813Z,100220.09
2023-05-03T11:46:26.968Z,100207.97
2023-05-03T11:48:54.221Z,100209.69
2023-05-03T11:51:24.120Z,100203.63
2023-05-03T11:53:51.737Z,100208.81
2023-05-03T11:56:20.612Z,100213.13
2023-05-03T11:58:54.639Z,100218.38
2023-05-03T12:01:22.418Z,100216.66
2023-05-03T12:03:53.881Z,100205.38
2023-05-03T12:06:22.034Z,100208.00
2023-05-03T12:08:50.092Z,100211.50
2023-05-03T12:11:18.314Z,100206.28
2023-05-03T12:13:47.812Z,100211.53
2023-05-03T12:16:19.220Z,100205.47
2023-05-03T12:18:57.943Z,100209.81
2023-05-03T12:23:57.425Z,100217.66
2023-05-03T12:26:25.729Z,100211.59
2023-05-03T12:28:56.185Z,100222.88
2023-05-03T12:31:24.193Z,100215.09
2023-05-03T12:36:24.874Z,100220.31
2023-05-03T12:38:56.099Z,100220.34
2023-05-03T12:42:04.748Z,100221.19
2023-05-03T12:44:16.757Z,100218.59
2023-05-03T12:46:45.434Z,100217.75
2023-05-03T12:49:15.168Z,100214.31
2023-05-03T12:51:43.182Z,100207.38
2023-05-03T12:54:12.002Z,100207.34
2023-05-03T12:56:40.723Z,100202.19
2023-05-03T12:59:39.444Z,100203.03
2023-05-03T13:06:59.515Z,100186.53
2023-05-03T13:09:37.088Z,100197.75
2023-05-03T13:12:14.764Z,100193.41
2023-05-03T13:14:43.000Z,100201.22
2023-05-03T13:17:10.377Z,100201.19
2023-05-03T13:19:37.826Z,100208.97
2023-05-03T13:22:05.231Z,100199.38
2023-05-03T13:24:32.321Z,100190.66
2023-05-03T13:26:59.350Z,100186.31
2023-05-03T13:29:26.858Z,100197.63
2023-05-03T13:31:54.101Z,100195.88
2023-05-03T13:34:21.796Z,100196.75
2023-05-03T13:36:49.135Z,100193.25
2023-05-03T13:39:16.482Z,100195.84
2023-05-03T13:41:43.510Z,100195.81
2023-05-03T13:44:11.793Z,100197.50
2023-05-03T13:46:39.392Z,100206.19
2023-05-03T13:49:07.382Z,100199.25
2023-05-03T13:51:35.056Z,100198.38
2023-05-03T13:54:03.251Z,100207.03
2023-05-03T13:56:30.817Z,100200.09
2023-05-03T13:58:58.198Z,100200.97
2023-05-03T14:01:25.898Z,100205.28
2023-05-03T14:03:53.249Z,100195.72
2023-05-03T14:06:20.864Z,100203.50
2023-05-03T14:08:48.147Z,100210.44
2023-05-03T14:11:19.624Z,100201.81
2023-05-03T14:13:56.587Z,100194.03
2023-05-03T14:16:39.423Z,100194.91
2023-05-03T14:19:08.047Z,100191.44
2023-05-03T14:21:35.186Z,100194.06
2023-05-03T14:24:02.370Z,100196.69
2023-05-03T14:26:29.708Z,100199.28
2023-05-03T14:28:57.085Z,100198.38
2023-05-03T14:31:24.331Z,100199.25
2023-05-03T14:33:51.532Z,100197.50
2023-05-03T14:36:18.527Z,100190.56
2023-05-03T14:38:45.488Z,100183.63
2023-05-03T14:41:12.714Z,100192.25
2023-05-03T14:43:39.759Z,100181.84
2023-05-03T14:46:08.414Z,100182.66
2023-05-03T14:48:35.859Z,100186.09
2023-05-03T14:51:03.742Z,100190.44
2023-05-03T14:53:31.124Z,100187.88
2023-05-03T14:55:58.138Z,100184.41
2023-05-03T14:58:25.301Z,100187.94
2023-05-03T15:00:52.447Z,100185.31
2023-05-03T15:03:19.642Z,100179.31
2023-05-03T15:05:50.106Z,100185.41
2023-05-03T15:08:19.392Z,100187.16
2023-05-03T15:10:46.674Z,100181.91
2023-05-03T15:13:14.223Z,100174.09
2023-05-03T15:15:46.507Z,100180.16
2023-05-03T15:18:14.694Z,100175.84
2023-05-03T15:20:41.817Z,100175.06
2023-05-03T15:23:09.140Z,100174.25
2023-05-03T15:25:36.564Z,100180.34
2023-05-03T15:28:04.686Z,100178.59
2023-05-03T15:30:33.142Z,100190.78
2023-05-03T15:33:01.182Z,100183.00
2023-05-03T15:35:28.262Z,100179.53
2023-05-03T15:37:55.316Z,100188.19
2023-05-03T15:40:25.142Z,100190.81
2023-05-03T15:42:53.850Z,100191.69
2023-05-03T15:45:23.193Z,100187.34
2023-05-03T15:47:50.499Z,100191.69
2023-05-03T15:50:19.499Z,100194.31
2023-05-03T15:52:46.844Z,100200.38
2023-05-03T15:55:13.954Z,100197.78
2023-05-03T15:57:41.102Z,100202.13
2023-05-03T16:00:15.154Z,100198.69
2023-05-03T16:02:42.666Z,100192.63
2023-05-03T16:05:10.491Z,100201.28
2023-05-03T16:07:37.655Z,100192.63
2023-05-03T16:10:05.704Z,100197.84
2023-05-03T16:12:32.931Z,100202.16
2023-05-03T16:15:00.020Z,100208.25
2023-05-03T16:17:27.387Z,100209.13
2023-05-03T16:19:54.670Z,100210.81
2023-05-03T16:22:21.901Z,100209.13
2023-05-03T16:24:49.308Z,100202.16
2023-05-03T16:27:16.300Z,100209.13
2023-05-03T16:29:43.427Z,100207.38
2023-05-03T16:32:11.247Z,100207.38
2023-05-03T16:34:38.383Z,100213.44
2023-05-03T16:37:05.577Z,100217.78
2023-05-03T16:39:32.891Z,100216.91
2023-05-03T16:41:59.903Z,100217.78
2023-05-03T16:44:27.495Z,100222.97
2023-05-03T16:46:54.611Z,100223.78
2023-05-03T16:49:21.825Z,100221.19
2023-05-03T16:51:48.838Z,100223.78
2023-05-03T16:54:17.068Z,100224.66
2023-05-03T16:56:44.455Z,100222.03
2023-05-03T16:59:11.816Z,100220.31
2023-05-03T17:01:39.062Z,100225.53
2023-05-03T17:04:06.705Z,100222.94
2023-05-03T17:06:33.772Z,100222.06
2023-05-03T17:09:00.929Z,100222.91
2023-05-03T17:11:27.955Z,100229.00
2023-05-03T17:13:55.108Z,100214.25
2023-05-03T17:16:22.783Z,100212.53
2023-05-03T17:18:49.912Z,100207.31
2023-05-03T17:21:16.922Z,100208.22
2023-05-03T17:23:44.136Z,100221.19
2023-05-03T17:26:12.323Z,100233.28
2023-05-03T17:28:39.815Z,100227.22
2023-05-03T17:31:07.551Z,100230.66
2023-05-03T17:33:34.683Z,100225.47
2023-05-03T17:36:04.646Z,100226.34
2023-05-03T17:38:32.632Z,100231.53
2023-05-03T17:41:07.657Z,100235.84
2023-05-03T17:43:35.979Z,100230.66
2023-05-03T17:46:10.998Z,100234.09
2023-05-03T17:48:40.478Z,100227.16
2023-05-03T17:51:07.649Z,100235.78
2023-05-03T17:53:34.772Z,100236.63
2023-05-03T17:56:01.863Z,100235.75
2023-05-03T17:58:28.957Z,100245.25
2023-05-03T18:00:57.281Z,100240.03
2023-05-03T18:03:25.811Z,100241.75
2023-05-03T18:05:53.187Z,100235.69
2023-05-03T18:08:20.677Z,100236.53
2023-05-03T18:10:48.110Z,100228.72
2023-05-03T18:13:15.296Z,100232.16
2023-05-03T18:15:42.714Z,100229.53
2023-05-03T18:18:09.773Z,100232.13
2023-05-03T18:20:36.805Z,100237.31
2023-05-03T18:23:03.988Z,100239.03
2023-05-03T18:25:31.635Z,100239.88
2023-05-03T18:27:58.775Z,100238.97
2023-05-03T18:30:28.128Z,100237.28
2023-05-03T18:32:55.988Z,100229.50
2023-05-03T18:35:23.273Z,100222.53
2023-05-03T18:37:53.449Z,100215.63
2023-05-03T18:40:20.519Z,100219.06
2023-05-03T18:42:47.717Z,100219.91
2023-05-03T18:45:15.309Z,100228.53
2023-05-03T18:47:42.471Z,100231.94
2023-05-03T18:50:09.670Z,100226.75
2023-05-03T18:52:37.341Z,100229.34
2023-05-03T18:55:04.882Z,100231.03
2023-05-03T18:57:32.108Z,100232.72
2023-05-03T19:00:08.000Z,100227.53
2023-05-03T19:02:36.058Z,100242.19
2023-05-03T19:05:03.209Z,100244.78
2023-05-03T19:07:33.185Z,100253.41
2023-05-03T19:10:01.231Z,100257.72
2023-05-03T19:12:28.959Z,100262.84
2023-05-03T19:14:56.285Z,100266.25
2023-05-03T19:17:23.402Z,100273.13
2023-05-03T19:19:51.571Z,100275.69
2023-05-03T19:22:18.579Z,100289.41
2023-05-03T19:24:45.599Z,100293.72
2023-05-03T19:27:12.650Z,100294.53
2023-05-03T19:29:39.725Z,100299.66
2023-05-03T19:32:06.966Z,100311.69
2023-05-03T19:34:37.238Z,100302.19
2023-05-03T19:37:05.139Z,100303.84
2023-05-03T19:39:35.648Z,100311.66
2023-05-03T19:42:03.979Z,100303.88
2023-05-03T19:44:31.121Z,100309.03
2023-05-03T19:46:58.172Z,100307.28
2023-05-03T19:49:25.813Z,100298.59
2023-05-03T19:51:56.061Z,100300.38
2023-05-03T19:54:23.283Z,100308.06
2023-05-03T19:56:50.408Z,100306.38
2023-05-03T19:59:18.334Z,100302.97
2023-05-03T20:01:45.566Z,100307.28
2023-05-03T20:04:12.758Z,100312.47
2023-05-03T20:06:39.799Z,100307.31
2023-05-03T20:09:06.751Z,100309.88
2023-05-03T20:11:33.836Z,100309.00
2023-05-03T20:14:00.852Z,100308.03
2023-05-03T20:16:32.892Z,100298.56
2023-05-03T20:19:00.113Z,100293.41
2023-05-03T20:21:27.089Z,100303.88
2023-05-03T20:23:54.629Z,100304.78
2023-05-03T20:26:22.029Z,100307.34
2023-05-03T20:28:49.117Z,100313.38
2023-05-03T20:31:16.237Z,100317.72
2023-05-03T20:33:43.354Z,100329.81
2023-05-03T20:36:12.960Z,100328.16
2023-05-03T20:38:39.891Z,100328.06
2023-05-03T20:41:07.210Z,100334.88
2023-05-03T20:43:34.280Z,100338.31
2023-05-03T20:46:01.417Z,100331.47
2023-05-03T20:48:28.672Z,100333.19
2023-05-03T20:50:58.673Z,100342.59
2023-05-03T20:53:25.942Z,100346.75
2023-05-03T20:55:56.813Z,100354.34
2023-05-03T20:58:23.942Z,100361.19
2023-05-03T21:00:56.915Z,100363.75
2023-05-03T21:03:25.434Z,100360.28
2023-05-03T21:05:53.548Z,100357.75
2023-05-03T21:08:20.752Z,100349.97
2023-05-03T21:10:47.901Z,100350.69
2023-05-03T21:13:15.071Z,100346.34
2023-05-03T21:15:45.382Z,100344.63
2023-05-03T21:18:12.445Z,100352.38
2023-05-03T21:20:39.433Z,100358.41
2023-05-03T21:23:06.580Z,100365.22
2023-05-03T21:25:33.636Z,100366.91
2023-05-03T21:28:00.727Z,100363.44
2023-05-03T21:30:27.945Z,100366.94
2023-05-03T21:32:55.036Z,100369.50
2023-05-03T21:35:22.176Z,100361.69
2023-05-03T21:37:49.991Z,100362.47
2023-05-03T21:40:17.227Z,100370.09
2023-05-03T21:42:44.323Z,100366.59
2023-05-03T21:45:11.981Z,100370.84
2023-05-03T21:47:38.994Z,100373.50
2023-05-03T21:50:06.690Z,100367.44
2023-05-03T21:52:34.187Z,100371.63
2023-05-03T21:55:01.347Z,100359.53
2023-05-03T21:57:33.018Z,100355.22
2023-05-03T22:00:00.280Z,100362.97
2023-05-03T22:02:27.576Z,100357.91
2023-05-03T22:04:54.775Z,100361.38
2023-05-03T22:07:21.863Z,100359.59
2023-05-03T22:09:48.975Z,100360.44
2023-05-03T22:14:46.241Z,100369.13
2023-05-03T22:17:13.703Z,100375.16
2023-05-03T22:19:40.770Z,100375.09
2023-05-03T22:22:07.736Z,100373.25
2023-05-03T22:24:34.764Z,100376.66
2023-05-03T22:27:02.188Z,100371.44
2023-05-03T22:29:29.242Z,100382.59
2023-05-03T22:31:56.662Z,100382.56
2023-05-03T22:34:23.755Z,100384.16
2023-05-03T22:36:50.853Z,100376.25
2023-05-03T22:39:17.791Z,100380.50
2023-05-03T22:41:44.876Z,100383.88
2023-05-03T22:44:11.905Z,100380.28
2023-05-03T22:46:38.986Z,100381.03
2023-05-03T22:49:05.972Z,100389.41
2023-05-03T22:51:33.373Z,100390.06
2023-05-03T22:54:00.646Z,100393.41
2023-05-03T22:56:27.787Z,100389.88
2023-05-03T22:58:54.721Z,100394.13
2023-05-03T23:01:21.856Z,100392.28
2023-05-03T23:03:48.965Z,100396.66
2023-05-03T23:06:16.027Z,100397.56
2023-05-03T23:08:43.303Z,100396.72
2023-05-03T23:11:10.715Z,100388.94
2023-05-03T23:13:37.948Z,100390.53
2023-05-03T23:16:05.620Z,100387.94
2023-05-03T23:18:32.589Z,100391.31
2023-05-03T23:20:59.977Z,100386.09
2023-05-03T23:23:26.987Z,100380.13
2023-05-03T23:25:53.983Z,100384.47
2023-05-03T23:28:21.432Z,100381.81
2023-05-03T23:30:49.027Z,100378.28
2023-05-03T23:33:16.500Z,100382.47
2023-05-03T23:35:43.803Z,100388.38
2023-05-03T23:38:10.902Z,100383.88
2023-05-03T23:40:38.066Z,100384.78
2023-05-03T23:43:05.316Z,100381.34
2023-05-03T23:45:32.273Z,100379.63
2023-05-03T23:47:59.318Z,100378.78
2023-05-03T23:50:26.747Z,100375.38
2023-05-03T23:52:53.835Z,100382.31
2023-05-03T23:55:20.853Z,100372.06
2023-05-03T23:57:47.935Z,100386.72
